sensor_id;sensor_type;location;lat;lon;timestamp;pressure;altitude;pressure_sealevel;temperature;humidity
61908;BME280;47864;52.526;19.672;2023-08-24T00:00:11;153556.75;;;18.19;100.00
61908;BME280;47864;52.526;19.672;2023-08-24T00:02:12;153574.53;;;18.26;100.00
61908;BME280;47864;52.526;19.672;2023-08-24T00:04:14;153521.13;;;18.05;100.00
61908;BME280;47864;52.526;19.672;2023-08-24T00:06:15;153544.00;;;18.14;100.00
61908;BME280;47864;52.526;19.672;2023-08-24T00:08:17;153552.91;;;18.17;100.00
61908;BME280;47864;52.526;19.672;2023-08-24T00:10:19;153556.75;;;18.19;100.00
61908;BME280;47864;52.526;19.672;2023-08-24T00:12:20;153538.91;;;18.12;100.00
61908;BME280;47864;52.526;19.672;2023-08-24T00:14:22;153547.81;;;18.15;100.00
61908;BME280;47864;52.526;19.672;2023-08-24T00:16:23;153523.66;;;18.06;100.00
61908;BME280;47864;52.526;19.672;2023-08-24T00:18:25;153530.03;;;18.08;100.00
61908;BME280;47864;52.526;19.672;2023-08-24T00:20:26;153522.38;;;18.05;100.00
61908;BME280;47864;52.526;19.672;2023-08-24T00:22:28;153521.13;;;18.05;100.00
61908;BME280;47864;52.526;19.672;2023-08-24T00:24:30;153495.75;;;17.95;100.00
61908;BME280;47864;52.526;19.672;2023-08-24T00:26:31;153479.19;;;17.88;100.00
61908;BME280;47864;52.526;19.672;2023-08-24T00:28:33;153451.25;;;17.77;100.00
61908;BME280;47864;52.526;19.672;2023-08-24T00:30:34;153432.22;;;17.69;100.00
61908;BME280;47864;52.526;19.672;2023-08-24T00:32:36;153388.97;;;17.52;100.00
61908;BME280;47864;52.526;19.672;2023-08-24T00:34:38;153378.78;;;17.48;100.00
61908;BME280;47864;52.526;19.672;2023-08-24T00:36:39;153413.16;;;17.62;100.00
61908;BME280;47864;52.526;19.672;2023-08-24T00:38:41;153410.56;;;17.61;100.00
61908;BME280;47864;52.526;19.672;2023-08-24T00:40:42;153413.16;;;17.62;100.00
61908;BME280;47864;52.526;19.672;2023-08-24T00:42:45;153423.28;;;17.66;100.00
61908;BME280;47864;52.526;19.672;2023-08-24T00:47:06;153404.19;;;17.58;100.00
61908;BME280;47864;52.526;19.672;2023-08-24T00:49:08;153397.81;;;17.56;100.00
61908;BME280;47864;52.526;19.672;2023-08-24T00:51:10;153391.50;;;17.53;100.00
61908;BME280;47864;52.526;19.672;2023-08-24T00:53:11;153386.41;;;17.51;100.00
61908;BME280;47864;52.526;19.672;2023-08-24T00:55:13;153391.50;;;17.53;100.00
61908;BME280;47864;52.526;19.672;2023-08-24T00:57:15;153402.91;;;17.58;100.00
61908;BME280;47864;52.526;19.672;2023-08-24T00:59:16;153404.19;;;17.58;100.00
61908;BME280;47864;52.526;19.672;2023-08-24T01:01:18;153390.25;;;17.53;100.00
61908;BME280;47864;52.526;19.672;2023-08-24T01:03:23;153404.19;;;17.58;100.00
61908;BME280;47864;52.526;19.672;2023-08-24T01:05:25;153381.31;;;17.49;100.00
61908;BME280;47864;52.526;19.672;2023-08-24T01:07:27;153387.69;;;17.52;100.00
61908;BME280;47864;52.526;19.672;2023-08-24T01:09:28;153386.41;;;17.51;100.00
61908;BME280;47864;52.526;19.672;2023-08-24T01:12:04;153355.91;;;17.39;100.00
61908;BME280;47864;52.526;19.672;2023-08-24T01:14:45;153322.91;;;17.26;100.00
61908;BME280;47864;52.526;19.672;2023-08-24T01:16:49;153340.69;;;17.33;100.00
61908;BME280;47864;52.526;19.672;2023-08-24T01:18:52;153357.19;;;17.39;100.00
61908;BME280;47864;52.526;19.672;2023-08-24T01:20:56;153294.94;;;17.15;100.00
61908;BME280;47864;52.526;19.672;2023-08-24T01:23:17;153333.03;;;17.30;100.00
61908;BME280;47864;52.526;19.672;2023-08-24T01:25:36;153330.53;;;17.29;100.00
61908;BME280;47864;52.526;19.672;2023-08-24T01:27:39;153352.13;;;17.37;100.00
61908;BME280;47864;52.526;19.672;2023-08-24T01:29:42;153302.59;;;17.18;100.00
61908;BME280;47864;52.526;19.672;2023-08-24T01:31:43;153330.53;;;17.29;100.00
61908;BME280;47864;52.526;19.672;2023-08-24T01:33:45;153306.41;;;17.19;100.00
61908;BME280;47864;52.526;19.672;2023-08-24T01:35:47;153267.03;;;17.03;100.00
61908;BME280;47864;52.526;19.672;2023-08-24T01:37:49;153281.00;;;17.09;100.00
61908;BME280;47864;52.526;19.672;2023-08-24T01:40:05;153275.91;;;17.07;100.00
61908;BME280;47864;52.526;19.672;2023-08-24T01:42:10;153275.91;;;17.07;100.00
61908;BME280;47864;52.526;19.672;2023-08-24T01:44:13;153265.78;;;17.03;100.00
61908;BME280;47864;52.526;19.672;2023-08-24T01:46:17;153296.22;;;17.15;100.00
61908;BME280;47864;52.526;19.672;2023-08-24T01:48:21;153294.94;;;17.15;100.00
61908;BME280;47864;52.526;19.672;2023-08-24T01:50:23;153273.34;;;17.06;100.00
61908;BME280;47864;52.526;19.672;2023-08-24T01:52:25;153310.22;;;17.21;100.00
61908;BME280;47864;52.526;19.672;2023-08-24T01:54:28;153303.84;;;17.18;100.00
61908;BME280;47864;52.526;19.672;2023-08-24T01:56:29;153302.59;;;17.18;100.00
61908;BME280;47864;52.526;19.672;2023-08-24T01:58:31;153273.34;;;17.06;100.00
61908;BME280;47864;52.526;19.672;2023-08-24T02:00:32;153300.03;;;17.17;100.00
61908;BME280;47864;52.526;19.672;2023-08-24T02:02:34;153296.22;;;17.15;100.00
61908;BME280;47864;52.526;19.672;2023-08-24T02:04:36;153301.31;;;17.17;100.00
61908;BME280;47864;52.526;19.672;2023-08-24T02:06:38;153314.00;;;17.22;100.00
61908;BME280;47864;52.526;19.672;2023-08-24T02:08:39;153336.84;;;17.31;100.00
61908;BME280;47864;52.526;19.672;2023-08-24T02:10:41;153343.22;;;17.34;100.00
61908;BME280;47864;52.526;19.672;2023-08-24T02:12:43;153348.31;;;17.36;100.00
61908;BME280;47864;52.526;19.672;2023-08-24T02:14:44;153361.00;;;17.41;100.00
61908;BME280;47864;52.526;19.672;2023-08-24T02:16:46;153324.19;;;17.26;100.00
61908;BME280;47864;52.526;19.672;2023-08-24T02:18:47;153324.19;;;17.26;100.00
61908;BME280;47864;52.526;19.672;2023-08-24T02:20:49;153320.38;;;17.25;100.00
61908;BME280;47864;52.526;19.672;2023-08-24T02:22:50;153305.13;;;17.19;100.00
61908;BME280;47864;52.526;19.672;2023-08-24T02:24:52;153282.28;;;17.09;100.00
61908;BME280;47864;52.526;19.672;2023-08-24T02:26:54;153298.78;;;17.16;100.00
61908;BME280;47864;52.526;19.672;2023-08-24T02:28:57;153307.69;;;17.20;100.00
61908;BME280;47864;52.526;19.672;2023-08-24T02:31:02;153311.50;;;17.21;100.00
61908;BME280;47864;52.526;19.672;2023-08-24T02:33:04;153329.28;;;17.28;100.00
61908;BME280;47864;52.526;19.672;2023-08-24T02:35:06;153319.09;;;17.24;100.00
61908;BME280;47864;52.526;19.672;2023-08-24T02:37:08;153319.09;;;17.24;100.00
61908;BME280;47864;52.526;19.672;2023-08-24T02:39:09;153316.53;;;17.23;100.00
61908;BME280;47864;52.526;19.672;2023-08-24T02:41:11;153301.31;;;17.17;100.00
61908;BME280;47864;52.526;19.672;2023-08-24T02:43:12;153269.59;;;17.04;100.00
61908;BME280;47864;52.526;19.672;2023-08-24T02:45:14;153259.41;;;17.00;100.00
61908;BME280;47864;52.526;19.672;2023-08-24T02:47:15;153241.63;;;16.93;100.00
61908;BME280;47864;52.526;19.672;2023-08-24T02:49:17;153217.50;;;16.84;100.00
61908;BME280;47864;52.526;19.672;2023-08-24T02:51:21;153239.09;;;16.92;100.00
61908;BME280;47864;52.526;19.672;2023-08-24T02:53:23;153264.50;;;17.02;100.00
61908;BME280;47864;52.526;19.672;2023-08-24T02:55:25;153267.03;;;17.03;100.00
61908;BME280;47864;52.526;19.672;2023-08-24T02:57:26;153234.00;;;16.90;100.00
61908;BME280;47864;52.526;19.672;2023-08-24T02:59:28;153222.59;;;16.86;100.00
61908;BME280;47864;52.526;19.672;2023-08-24T03:01:29;153228.97;;;16.88;100.00
61908;BME280;47864;52.526;19.672;2023-08-24T03:03:31;153241.63;;;16.93;100.00
61908;BME280;47864;52.526;19.672;2023-08-24T03:05:33;153202.28;;;16.78;100.00
61908;BME280;47864;52.526;19.672;2023-08-24T03:07:34;153198.47;;;16.76;100.00
61908;BME280;47864;52.526;19.672;2023-08-24T03:09:36;153203.56;;;16.78;100.00
61908;BME280;47864;52.526;19.672;2023-08-24T03:11:37;153231.44;;;16.89;100.00
61908;BME280;47864;52.526;19.672;2023-08-24T03:13:39;153193.38;;;16.74;100.00
61908;BME280;47864;52.526;19.672;2023-08-24T03:15:40;153175.59;;;16.67;100.00
61908;BME280;47864;52.526;19.672;2023-08-24T03:17:42;153160.38;;;16.61;100.00
61908;BME280;47864;52.526;19.672;2023-08-24T03:19:44;153129.84;;;16.49;100.00
61908;BME280;47864;52.526;19.672;2023-08-24T03:21:45;153131.13;;;16.49;100.00
61908;BME280;47864;52.526;19.672;2023-08-24T03:23:47;153115.91;;;16.43;100.00
61908;BME280;47864;52.526;19.672;2023-08-24T03:25:48;153124.81;;;16.47;100.00
61908;BME280;47864;52.526;19.672;2023-08-24T03:27:50;153123.53;;;16.46;100.00
61908;BME280;47864;52.526;19.672;2023-08-24T03:29:53;153086.69;;;16.31;100.00
61908;BME280;47864;52.526;19.672;2023-08-24T03:31:55;153032.13;;;16.10;100.00
61908;BME280;47864;52.526;19.672;2023-08-24T03:33:56;152999.16;;;15.96;100.00
61908;BME280;47864;52.526;19.672;2023-08-24T03:35:58;153033.41;;;16.10;100.00
61908;BME280;47864;52.526;19.672;2023-08-24T03:37:59;153047.34;;;16.16;100.00
61908;BME280;47864;52.526;19.672;2023-08-24T03:40:01;153013.09;;;16.02;100.00
61908;BME280;47864;52.526;19.672;2023-08-24T03:42:02;152990.25;;;15.93;100.00
61908;BME280;47864;52.526;19.672;2023-08-24T03:44:04;152954.72;;;15.79;100.00
61908;BME280;47864;52.526;19.672;2023-08-24T03:46:06;153024.50;;;16.07;100.00
61908;BME280;47864;52.526;19.672;2023-08-24T03:48:07;153023.22;;;16.06;100.00
61908;BME280;47864;52.526;19.672;2023-08-24T03:50:09;153020.72;;;16.05;100.00
61908;BME280;47864;52.526;19.672;2023-08-24T03:52:10;153033.41;;;16.10;100.00
61908;BME280;47864;52.526;19.672;2023-08-24T03:54:15;153008.00;;;16.00;100.00
61908;BME280;47864;52.526;19.672;2023-08-24T03:56:17;152943.28;;;15.74;100.00
61908;BME280;47864;52.526;19.672;2023-08-24T03:58:18;152950.91;;;15.77;100.00
61908;BME280;47864;52.526;19.672;2023-08-24T04:00:20;152978.84;;;15.88;100.00
61908;BME280;47864;52.526;19.672;2023-08-24T04:02:21;152963.59;;;15.82;100.00
61908;BME280;47864;52.526;19.672;2023-08-24T04:04:23;153006.72;;;15.99;100.00
61908;BME280;47864;52.526;19.672;2023-08-24T04:06:25;153014.38;;;16.03;100.00
61908;BME280;47864;52.526;19.672;2023-08-24T04:08:26;153047.34;;;16.16;100.00
61908;BME280;47864;52.526;19.672;2023-08-24T04:10:31;153072.72;;;16.26;100.00
61908;BME280;47864;52.526;19.672;2023-08-24T04:12:32;153072.72;;;16.26;100.00
61908;BME280;47864;52.526;19.672;2023-08-24T04:14:34;153091.78;;;16.33;100.00
61908;BME280;47864;52.526;19.672;2023-08-24T04:16:36;153098.13;;;16.36;100.00
61908;BME280;47864;52.526;19.672;2023-08-24T04:18:37;153140.03;;;16.53;100.00
61908;BME280;47864;52.526;19.672;2023-08-24T04:20:39;153119.72;;;16.45;100.00
61908;BME280;47864;52.526;19.672;2023-08-24T04:22:40;153166.75;;;16.63;100.00
61908;BME280;47864;52.526;19.672;2023-08-24T04:24:42;153195.91;;;16.75;100.00
61908;BME280;47864;52.526;19.672;2023-08-24T04:26:43;153218.78;;;16.84;100.00
61908;BME280;47864;52.526;19.672;2023-08-24T04:28:45;153211.13;;;16.81;100.00
61908;BME280;47864;52.526;19.672;2023-08-24T04:30:53;153225.13;;;16.87;100.00
61908;BME280;47864;52.526;19.672;2023-08-24T04:32:56;153234.00;;;16.90;100.00
61908;BME280;47864;52.526;19.672;2023-08-24T04:34:58;153237.81;;;16.92;100.00
61908;BME280;47864;52.526;19.672;2023-08-24T04:36:59;153259.41;;;17.00;100.00
61908;BME280;47864;52.526;19.672;2023-08-24T04:39:01;153249.28;;;16.96;100.00
61908;BME280;47864;52.526;19.672;2023-08-24T04:41:03;153315.28;;;17.23;100.00
61908;BME280;47864;52.526;19.672;2023-08-24T04:43:04;153324.19;;;17.26;100.00
61908;BME280;47864;52.526;19.672;2023-08-24T04:45:06;153357.19;;;17.39;100.00
61908;BME280;47864;52.526;19.672;2023-08-24T04:47:08;153416.94;;;17.63;100.00
61908;BME280;47864;52.526;19.672;2023-08-24T04:49:10;153432.22;;;17.69;100.00
61908;BME280;47864;52.526;19.672;2023-08-24T04:51:11;153493.19;;;17.94;100.00
61908;BME280;47864;52.526;19.672;2023-08-24T04:53:14;153540.19;;;18.12;100.00
61908;BME280;47864;52.526;19.672;2023-08-24T04:55:16;153578.34;;;18.28;100.00
61908;BME280;47864;52.526;19.672;2023-08-24T04:57:18;153686.41;;;18.71;100.00
61908;BME280;47864;52.526;19.672;2023-08-24T04:59:19;153737.28;;;18.91;100.00
61908;BME280;47864;52.526;19.672;2023-08-24T05:01:22;153793.22;;;19.13;100.00
61908;BME280;47864;52.526;19.672;2023-08-24T05:03:24;153738.56;;;18.91;100.00
61908;BME280;47864;52.526;19.672;2023-08-24T05:05:25;153793.22;;;19.13;100.00
61908;BME280;47864;52.526;19.672;2023-08-24T05:07:27;153855.53;;;19.38;100.00
61908;BME280;47864;52.526;19.672;2023-08-24T05:09:28;153870.78;;;19.44;100.00
61908;BME280;47864;52.526;19.672;2023-08-24T05:11:30;153917.91;;;19.63;100.00
61908;BME280;47864;52.526;19.672;2023-08-24T05:13:31;153917.91;;;19.63;100.00
61908;BME280;47864;52.526;19.672;2023-08-24T05:15:32;153907.75;;;19.59;100.00
61908;BME280;47864;52.526;19.672;2023-08-24T05:17:34;153945.91;;;19.74;100.00
61908;BME280;47864;52.526;19.672;2023-08-24T05:19:36;153917.91;;;19.63;100.00
61908;BME280;47864;52.526;19.672;2023-08-24T05:21:37;153923.00;;;19.65;100.00
61908;BME280;47864;52.526;19.672;2023-08-24T05:23:39;153919.19;;;19.63;100.00
61908;BME280;47864;52.526;19.672;2023-08-24T05:25:40;153883.56;;;19.49;100.00
61908;BME280;47864;52.526;19.672;2023-08-24T05:27:45;153835.19;;;19.30;100.00
61908;BME280;47864;52.526;19.672;2023-08-24T05:29:46;153902.66;;;19.57;100.00
61908;BME280;47864;52.526;19.672;2023-08-24T05:31:48;153909.03;;;19.59;100.00
61908;BME280;47864;52.526;19.672;2023-08-24T05:33:50;153944.63;;;19.73;100.00
61908;BME280;47864;52.526;19.672;2023-08-24T05:35:52;154026.06;;;20.06;100.00
61908;BME280;47864;52.526;19.672;2023-08-24T05:37:53;154057.84;;;20.19;100.00
61908;BME280;47864;52.526;19.672;2023-08-24T05:39:55;154054.06;;;20.17;100.00
61908;BME280;47864;52.526;19.672;2023-08-24T05:41:56;154065.50;;;20.22;100.00
61908;BME280;47864;52.526;19.672;2023-08-24T05:43:58;154311.28;;;21.19;99.72
61908;BME280;47864;52.526;19.672;2023-08-24T05:45:59;154483.22;;;21.88;96.02
61908;BME280;47864;52.526;19.672;2023-08-24T05:48:01;154603.03;;;22.35;86.13
61908;BME280;47864;52.526;19.672;2023-08-24T05:50:03;154618.31;;;22.42;85.27
61908;BME280;47864;52.526;19.672;2023-08-24T05:52:05;154576.25;;;22.25;83.27
61908;BME280;47864;52.526;19.672;2023-08-24T05:54:06;154388.94;;;21.50;87.13
61908;BME280;47864;52.526;19.672;2023-08-24T05:56:08;154416.97;;;21.61;87.31
61908;BME280;47864;52.526;19.672;2023-08-24T05:58:09;154432.25;;;21.68;86.96
61908;BME280;47864;52.526;19.672;2023-08-24T06:00:11;154469.25;;;21.82;84.76
61908;BME280;47864;52.526;19.672;2023-08-24T06:02:13;154369.84;;;21.43;86.90
61908;BME280;47864;52.526;19.672;2023-08-24T06:04:14;154441.19;;;21.71;86.55
61908;BME280;47864;52.526;19.672;2023-08-24T06:06:16;154540.59;;;22.11;85.65
61908;BME280;47864;52.526;19.672;2023-08-24T06:08:18;154606.88;;;22.37;84.92
61908;BME280;47864;52.526;19.672;2023-08-24T06:10:19;154597.94;;;22.33;84.85
61908;BME280;47864;52.526;19.672;2023-08-24T06:12:21;154557.16;;;22.17;85.50
61908;BME280;47864;52.526;19.672;2023-08-24T06:14:22;154619.59;;;22.42;84.81
61908;BME280;47864;52.526;19.672;2023-08-24T06:16:24;154611.97;;;22.39;83.41
61908;BME280;47864;52.526;19.672;2023-08-24T06:18:26;154870.78;;;23.42;82.72
61908;BME280;47864;52.526;19.672;2023-08-24T06:20:27;155035.34;;;24.07;76.64
61908;BME280;47864;52.526;19.672;2023-08-24T06:22:28;155013.66;;;23.99;76.35
61908;BME280;47864;52.526;19.672;2023-08-24T06:24:33;154905.25;;;23.56;75.82
61908;BME280;47864;52.526;19.672;2023-08-24T06:26:34;154835.09;;;23.28;78.04
61908;BME280;47864;52.526;19.672;2023-08-24T06:28:36;154874.59;;;23.43;78.90
61908;BME280;47864;52.526;19.672;2023-08-24T06:30:41;154930.75;;;23.66;76.47
61908;BME280;47864;52.526;19.672;2023-08-24T06:32:43;154986.91;;;23.88;75.00
61908;BME280;47864;52.526;19.672;2023-08-24T06:34:44;155040.47;;;24.09;74.95
61908;BME280;47864;52.526;19.672;2023-08-24T06:36:47;154977.97;;;23.84;75.26
61908;BME280;47864;52.526;19.672;2023-08-24T06:38:49;155080.06;;;24.25;74.59
61908;BME280;47864;52.526;19.672;2023-08-24T06:40:50;155123.44;;;24.42;74.75
61908;BME280;47864;52.526;19.672;2023-08-24T06:42:52;155238.25;;;24.88;71.33
61908;BME280;47864;52.526;19.672;2023-08-24T06:44:53;155168.09;;;24.60;71.64
61908;BME280;47864;52.526;19.672;2023-08-24T06:46:55;155469.44;;;25.80;68.07
61908;BME280;47864;52.526;19.672;2023-08-24T06:48:56;155483.50;;;25.85;66.63
61908;BME280;47864;52.526;19.672;2023-08-24T06:50:58;155532.00;;;26.04;66.48
61908;BME280;47864;52.526;19.672;2023-08-24T06:53:00;155555.00;;;26.13;65.74
61908;BME280;47864;52.526;19.672;2023-08-24T06:55:02;155631.69;;;26.44;65.10
61908;BME280;47864;52.526;19.672;2023-08-24T06:57:04;155664.94;;;26.57;63.98
61908;BME280;47864;52.526;19.672;2023-08-24T06:59:06;155773.59;;;27.00;62.11
61908;BME280;47864;52.526;19.672;2023-08-24T07:01:07;155822.13;;;27.19;62.92
61908;BME280;47864;52.526;19.672;2023-08-24T07:03:09;155875.81;;;27.41;60.59
61908;BME280;47864;52.526;19.672;2023-08-24T07:05:10;155869.41;;;27.38;59.87
61908;BME280;47864;52.526;19.672;2023-08-24T07:07:12;155929.53;;;27.62;60.41
61908;BME280;47864;52.526;19.672;2023-08-24T07:09:14;155796.59;;;27.09;60.66
61908;BME280;47864;52.526;19.672;2023-08-24T07:11:16;155705.81;;;26.73;63.22
61908;BME280;47864;52.526;19.672;2023-08-24T07:13:17;155787.63;;;27.06;61.97
61908;BME280;47864;52.526;19.672;2023-08-24T07:15:18;155704.53;;;26.73;63.62
61908;BME280;47864;52.526;19.672;2023-08-24T07:17:20;155728.81;;;26.82;61.85
61908;BME280;47864;52.526;19.672;2023-08-24T07:19:21;155801.66;;;27.11;62.81
61908;BME280;47864;52.526;19.672;2023-08-24T07:21:23;155909.09;;;27.54;60.76
61908;BME280;47864;52.526;19.672;2023-08-24T07:23:25;155831.09;;;27.23;60.68
61908;BME280;47864;52.526;19.672;2023-08-24T07:25:26;155684.09;;;26.65;64.06
61908;BME280;47864;52.526;19.672;2023-08-24T07:27:28;155739.00;;;26.86;62.12
61908;BME280;47864;52.526;19.672;2023-08-24T07:29:30;155589.56;;;26.27;63.16
61908;BME280;47864;52.526;19.672;2023-08-24T07:31:31;155359.63;;;25.36;66.68
61908;BME280;47864;52.526;19.672;2023-08-24T07:33:33;155452.84;;;25.73;66.07
61908;BME280;47864;52.526;19.672;2023-08-24T07:35:34;155556.28;;;26.14;66.60
61908;BME280;47864;52.526;19.672;2023-08-24T07:37:36;155511.56;;;25.96;66.15
61908;BME280;47864;52.526;19.672;2023-08-24T07:39:38;155511.56;;;25.96;66.74
61908;BME280;47864;52.526;19.672;2023-08-24T07:41:39;155463.09;;;25.77;69.05
61908;BME280;47864;52.526;19.672;2023-08-24T07:43:41;155380.03;;;25.44;68.94
61908;BME280;47864;52.526;19.672;2023-08-24T07:45:43;155415.78;;;25.58;68.89
61908;BME280;47864;52.526;19.672;2023-08-24T07:47:44;155555.00;;;26.13;67.43
61908;BME280;47864;52.526;19.672;2023-08-24T07:49:46;155709.66;;;26.75;64.08
61908;BME280;47864;52.526;19.672;2023-08-24T07:51:48;155673.84;;;26.61;63.94
61908;BME280;47864;52.526;19.672;2023-08-24T07:53:49;155865.56;;;27.37;62.90
61908;BME280;47864;52.526;19.672;2023-08-24T07:55:53;155902.63;;;27.51;60.97
61908;BME280;47864;52.526;19.672;2023-08-24T07:57:55;155672.59;;;26.60;62.65
61908;BME280;47864;52.526;19.672;2023-08-24T07:59:57;155516.69;;;25.98;65.89
61908;BME280;47864;52.526;19.672;2023-08-24T08:01:58;155400.47;;;25.52;66.75
61908;BME280;47864;52.526;19.672;2023-08-24T08:04:00;155446.44;;;25.70;66.28
61908;BME280;47864;52.526;19.672;2023-08-24T08:06:02;155495.00;;;25.90;67.48
61908;BME280;47864;52.526;19.672;2023-08-24T08:08:04;155533.28;;;26.05;67.50
61908;BME280;47864;52.526;19.672;2023-08-24T08:10:06;155456.69;;;25.74;66.78
61908;BME280;47864;52.526;19.672;2023-08-24T08:12:07;155750.59;;;26.91;62.69
61908;BME280;47864;52.526;19.672;2023-08-24T08:14:09;155676.41;;;26.62;60.84
61908;BME280;47864;52.526;19.672;2023-08-24T08:16:11;155718.56;;;26.78;62.31
61908;BME280;47864;52.526;19.672;2023-08-24T08:18:12;155529.44;;;26.03;62.66
61908;BME280;47864;52.526;19.672;2023-08-24T08:20:14;155460.53;;;25.76;60.70
61908;BME280;47864;52.526;19.672;2023-08-24T08:22:16;155447.72;;;25.71;61.79
61908;BME280;47864;52.526;19.672;2023-08-24T08:24:17;155477.13;;;25.83;61.02
61908;BME280;47864;52.526;19.672;2023-08-24T08:26:27;155603.59;;;26.33;60.61
61908;BME280;47864;52.526;19.672;2023-08-24T08:28:29;155493.72;;;25.89;61.18
61908;BME280;47864;52.526;19.672;2023-08-24T08:30:30;155533.28;;;26.05;60.03
61908;BME280;47864;52.526;19.672;2023-08-24T08:32:32;155480.97;;;25.84;60.37
61908;BME280;47864;52.526;19.672;2023-08-24T08:34:34;155595.94;;;26.30;60.58
61908;BME280;47864;52.526;19.672;2023-08-24T08:36:35;155538.41;;;26.07;61.74
61908;BME280;47864;52.526;19.672;2023-08-24T08:38:37;155620.22;;;26.39;60.71
61908;BME280;47864;52.526;19.672;2023-08-24T08:40:39;155523.09;;;26.01;62.32
61908;BME280;47864;52.526;19.672;2023-08-24T08:42:41;155503.94;;;25.93;61.07
61908;BME280;47864;52.526;19.672;2023-08-24T08:44:45;155491.16;;;25.88;60.10
61908;BME280;47864;52.526;19.672;2023-08-24T08:46:47;155520.53;;;26.00;59.91
61908;BME280;47864;52.526;19.672;2023-08-24T08:48:51;155498.81;;;25.91;59.61
61908;BME280;47864;52.526;19.672;2023-08-24T08:50:54;155478.41;;;25.83;58.10
61908;BME280;47864;52.526;19.672;2023-08-24T08:52:56;155511.56;;;25.96;58.19
61908;BME280;47864;52.526;19.672;2023-08-24T08:54:57;155473.28;;;25.81;59.02
61908;BME280;47864;52.526;19.672;2023-08-24T08:56:59;155509.03;;;25.95;58.78
61908;BME280;47864;52.526;19.672;2023-08-24T08:59:07;155604.88;;;26.33;58.12
61908;BME280;47864;52.526;19.672;2023-08-24T09:01:09;155493.72;;;25.89;57.96
61908;BME280;47864;52.526;19.672;2023-08-24T09:03:12;155673.84;;;26.61;57.16
61908;BME280;47864;52.526;19.672;2023-08-24T09:05:15;155640.66;;;26.47;54.55
61908;BME280;47864;52.526;19.672;2023-08-24T09:07:16;155557.56;;;26.14;53.67
61908;BME280;47864;52.526;19.672;2023-08-24T09:09:18;155687.94;;;26.66;53.04
61908;BME280;47864;52.526;19.672;2023-08-24T09:11:20;155551.16;;;26.12;54.31
61908;BME280;47864;52.526;19.672;2023-08-24T09:13:22;155533.28;;;26.05;53.06
61908;BME280;47864;52.526;19.672;2023-08-24T09:15:24;155488.59;;;25.87;50.93
61908;BME280;47864;52.526;19.672;2023-08-24T09:17:26;155443.94;;;25.69;51.48
61908;BME280;47864;52.526;19.672;2023-08-24T09:19:28;155497.53;;;25.91;50.88
61908;BME280;47864;52.526;19.672;2023-08-24T09:21:30;155626.59;;;26.42;49.31
61908;BME280;47864;52.526;19.672;2023-08-24T09:23:32;155606.16;;;26.34;50.24
61908;BME280;47864;52.526;19.672;2023-08-24T09:25:44;155630.44;;;26.43;50.62
61908;BME280;47864;52.526;19.672;2023-08-24T09:27:56;155611.25;;;26.36;50.23
61908;BME280;47864;52.526;19.672;2023-08-24T09:29:57;155657.25;;;26.54;49.79
61908;BME280;47864;52.526;19.672;2023-08-24T09:31:59;155704.53;;;26.73;49.27
61908;BME280;47864;52.526;19.672;2023-08-24T09:34:00;155659.81;;;26.55;47.91
61908;BME280;47864;52.526;19.672;2023-08-24T09:36:05;155641.91;;;26.48;47.90
61908;BME280;47864;52.526;19.672;2023-08-24T09:38:17;155673.84;;;26.61;48.70
61908;BME280;47864;52.526;19.672;2023-08-24T09:40:24;155754.44;;;26.93;50.96
61908;BME280;47864;52.526;19.672;2023-08-24T09:42:25;155751.88;;;26.92;49.06
61908;BME280;47864;52.526;19.672;2023-08-24T09:44:30;155751.88;;;26.92;48.65
61908;BME280;47864;52.526;19.672;2023-08-24T09:46:31;155768.47;;;26.98;47.73
61908;BME280;47864;52.526;19.672;2023-08-24T09:48:33;155730.09;;;26.83;49.54
61908;BME280;47864;52.526;19.672;2023-08-24T09:50:35;155616.38;;;26.38;49.74
61908;BME280;47864;52.526;19.672;2023-08-24T09:52:37;155693.03;;;26.68;48.80
61908;BME280;47864;52.526;19.672;2023-08-24T09:54:42;155693.03;;;26.68;47.71
61908;BME280;47864;52.526;19.672;2023-08-24T09:56:46;155838.78;;;27.26;45.71
61908;BME280;47864;52.526;19.672;2023-08-24T09:58:50;155866.84;;;27.37;44.13
61908;BME280;47864;52.526;19.672;2023-08-24T10:00:52;155695.56;;;26.69;44.72
61908;BME280;47864;52.526;19.672;2023-08-24T10:02:54;155722.41;;;26.80;45.85
61908;BME280;47864;52.526;19.672;2023-08-24T10:04:58;155750.59;;;26.91;46.35
61908;BME280;47864;52.526;19.672;2023-08-24T10:07:10;155842.56;;;27.27;45.07
61908;BME280;47864;52.526;19.672;2023-08-24T10:09:20;156033.09;;;28.03;42.77
61908;BME280;47864;52.526;19.672;2023-08-24T10:11:26;155983.25;;;27.83;41.11
61908;BME280;47864;52.526;19.672;2023-08-24T10:15:35;155909.09;;;27.54;42.11
61908;BME280;47864;52.526;19.672;2023-08-24T10:17:38;155971.72;;;27.79;41.28
61908;BME280;47864;52.526;19.672;2023-08-24T10:19:41;155988.34;;;27.85;39.12
61908;BME280;47864;52.526;19.672;2023-08-24T10:21:44;155869.41;;;27.38;39.63
61908;BME280;47864;52.526;19.672;2023-08-24T10:23:46;155848.97;;;27.30;36.93
61908;BME280;47864;52.526;19.672;2023-08-24T10:25:51;155822.13;;;27.19;37.54
61908;BME280;47864;52.526;19.672;2023-08-24T10:27:53;155824.69;;;27.20;38.68
61908;BME280;47864;52.526;19.672;2023-08-24T10:29:56;155831.09;;;27.23;39.03
61908;BME280;47864;52.526;19.672;2023-08-24T10:31:57;155838.78;;;27.26;40.71